Terminal Aerodrome Forecast
Issued by NWS

Home | Current Version | Previous Version | Text Only | Print | Product List | Glossary On
Versions: 1 2 3 4 5 6 7 8 9 10 11 12 13 14 15 16 17 18 19
000
FTUS46 KMTR 192300
TAFSNS
TAF
KSNS 192320Z 2000/2024 28012KT P6SM SCT012
     FM200100 27008KT P6SM OVC010
     FM200400 27005KT P6SM OVC008
     FM201700 VRB03KT P6SM SCT010
     FM201900 28012KT P6SM SKC=

USA.gov is the U.S. government's official web portal to all federal, state and local government web resources and services.